createdAt,value
2017-08-18T00:00:46.606Z,76.30
2017-08-18T00:05:42.417Z,76.30
2017-08-18T00:08:09.110Z,76.30
2017-08-18T00:15:33.312Z,76.20
2017-08-18T00:18:00.418Z,76.20
2017-08-18T00:20:27.130Z,76.20
2017-08-18T00:25:22.251Z,76.30
2017-08-18T00:27:48.948Z,76.30
2017-08-18T00:30:15.641Z,76.30
2017-08-18T00:32:42.850Z,76.20
2017-08-18T00:35:09.567Z,76.20
2017-08-18T00:42:33.504Z,76.20
2017-08-18T00:45:00.244Z,76.20
2017-08-18T00:47:26.977Z,76.20
2017-08-18T00:49:53.669Z,76.20
2017-08-18T00:52:20.452Z,76.20
2017-08-18T00:57:16.216Z,76.20
2017-08-18T00:59:43.564Z,76.20
2017-08-18T01:02:11.020Z,76.20
2017-08-18T01:07:06.851Z,76.20
2017-08-18T01:09:33.613Z,76.20
2017-08-18T01:12:01.509Z,76.20
2017-08-18T01:16:57.065Z,76.20
2017-08-18T01:21:52.136Z,76.20
2017-08-18T01:24:19.276Z,76.10
2017-08-18T01:26:45.988Z,76.20
2017-08-18T01:29:13.457Z,76.20
2017-08-18T01:31:40.769Z,76.20
2017-08-18T01:34:07.470Z,76.20
2017-08-18T01:36:34.589Z,76.10
2017-08-18T01:39:02.436Z,76.10
2017-08-18T01:43:57.508Z,76.10
2017-08-18T01:46:24.645Z,76.10
2017-08-18T01:48:52.640Z,76.10
2017-08-18T01:51:20.096Z,76.10
2017-08-18T01:53:48.892Z,76.10
2017-08-18T01:56:15.572Z,76.10
2017-08-18T01:58:42.296Z,76.10
2017-08-18T02:01:08.990Z,76.10
2017-08-18T02:06:04.668Z,76.10
2017-08-18T02:08:32.728Z,76.10
2017-08-18T02:10:59.440Z,76.10
2017-08-18T02:13:26.892Z,76.10
2017-08-18T02:15:53.601Z,76.10
2017-08-18T02:18:21.504Z,76.10
2017-08-18T02:20:48.992Z,76.10
2017-08-18T02:23:15.688Z,76.10
2017-08-18T02:25:42.802Z,76.10
2017-08-18T02:30:38.321Z,76.10
2017-08-18T02:33:06.575Z,76.10
2017-08-18T02:35:34.092Z,76.10
2017-08-18T02:38:00.788Z,76.10
2017-08-18T02:40:27.873Z,76.10
2017-08-18T02:42:54.592Z,76.10
2017-08-18T02:45:21.277Z,76.10
2017-08-18T02:47:48.001Z,76.10
2017-08-18T02:50:15.514Z,76.10
2017-08-18T02:52:42.257Z,76.10
2017-08-18T02:55:08.948Z,76.10
2017-08-18T02:57:36.448Z,76.10
2017-08-18T03:02:33.957Z,76.00
2017-08-18T03:10:16.781Z,76.00
2017-08-18T03:12:43.463Z,76.10
2017-08-18T03:15:10.220Z,76.10
2017-08-18T03:17:37.310Z,76.10
2017-08-18T03:22:32.356Z,76.10
2017-08-18T03:24:59.076Z,76.10
2017-08-18T03:29:55.584Z,76.10
2017-08-18T03:32:22.949Z,76.10
2017-08-18T03:37:40.409Z,76.10
2017-08-18T03:40:07.489Z,76.10
2017-08-18T03:42:34.221Z,76.00
2017-08-18T03:45:01.071Z,76.10
2017-08-18T03:47:27.827Z,76.10
2017-08-18T03:49:54.558Z,76.10
2017-08-18T03:52:22.799Z,76.10
2017-08-18T03:54:50.630Z,76.10
2017-08-18T03:57:18.396Z,76.10
2017-08-18T03:59:45.601Z,76.10
2017-08-18T04:02:12.891Z,76.10
2017-08-18T04:07:29.577Z,76.10
2017-08-18T04:09:57.466Z,76.10
2017-08-18T04:12:24.254Z,76.10
2017-08-18T04:17:19.772Z,76.10
2017-08-18T04:19:46.508Z,76.10
2017-08-18T04:22:13.537Z,76.10
2017-08-18T04:24:40.679Z,76.10
2017-08-18T04:27:07.380Z,76.10
2017-08-18T04:29:34.725Z,76.00
2017-08-18T04:32:01.964Z,76.10
2017-08-18T04:37:18.094Z,76.00
2017-08-18T04:39:44.829Z,76.00
2017-08-18T04:42:11.909Z,76.00
2017-08-18T04:44:39.040Z,76.00
2017-08-18T04:47:05.820Z,76.00
2017-08-18T04:49:32.530Z,76.00
2017-08-18T04:52:00.384Z,76.10
2017-08-18T04:54:27.060Z,76.10
2017-08-18T04:56:53.855Z,76.00
2017-08-18T04:59:20.541Z,76.00
2017-08-18T05:01:48.013Z,76.00
2017-08-18T05:04:15.097Z,76.00
2017-08-18T05:06:41.837Z,76.10
2017-08-18T05:09:08.525Z,76.10
2017-08-18T05:11:35.257Z,76.10
2017-08-18T05:14:01.990Z,76.10
2017-08-18T05:16:28.725Z,76.10
2017-08-18T05:18:55.450Z,76.10
2017-08-18T05:21:22.199Z,76.10
2017-08-18T05:23:50.746Z,76.10
2017-08-18T05:26:17.444Z,76.00
2017-08-18T05:28:45.724Z,76.10
2017-08-18T05:31:13.181Z,76.10
2017-08-18T05:33:40.265Z,76.10
2017-08-18T05:36:06.988Z,76.10
2017-08-18T05:41:02.058Z,76.00
2017-08-18T05:43:29.622Z,76.10
2017-08-18T05:45:57.125Z,76.10
2017-08-18T05:48:24.905Z,76.10
2017-08-18T05:50:58.448Z,76.10
2017-08-18T05:53:25.136Z,76.10
2017-08-18T05:55:51.845Z,76.10
2017-08-18T05:58:19.048Z,76.10
2017-08-18T06:00:45.738Z,76.10
2017-08-18T06:03:13.941Z,76.10
2017-08-18T06:05:41.405Z,76.00
2017-08-18T06:08:08.130Z,76.00
2017-08-18T06:10:34.906Z,76.10
2017-08-18T06:13:02.336Z,76.10
2017-08-18T06:15:29.046Z,76.10
2017-08-18T06:17:55.756Z,76.10
2017-08-18T06:20:22.458Z,76.10
2017-08-18T06:22:49.579Z,76.10
2017-08-18T06:25:17.412Z,76.10
2017-08-18T06:27:44.127Z,76.10
2017-08-18T06:30:11.204Z,76.10
2017-08-18T06:32:37.924Z,76.10
2017-08-18T06:35:04.596Z,76.10
2017-08-18T06:37:31.301Z,76.10
2017-08-18T06:39:58.929Z,76.10
2017-08-18T06:42:25.629Z,76.10
2017-08-18T06:44:53.880Z,76.10
2017-08-18T06:47:21.316Z,76.10
2017-08-18T06:49:48.103Z,76.10
2017-08-18T06:52:14.818Z,76.20
2017-08-18T06:54:41.524Z,76.10
2017-08-18T06:57:08.201Z,76.20
2017-08-18T06:59:35.280Z,76.10
2017-08-18T07:02:02.001Z,76.10
2017-08-18T07:04:28.698Z,76.10
2017-08-18T07:06:55.416Z,76.20
2017-08-18T07:09:22.100Z,76.20
2017-08-18T07:11:48.812Z,76.20
2017-08-18T07:14:15.497Z,76.20
2017-08-18T07:16:42.662Z,76.20
2017-08-18T07:19:09.353Z,76.20
2017-08-18T07:24:04.440Z,76.10
2017-08-18T07:26:31.124Z,76.20
2017-08-18T07:28:59.225Z,76.20
2017-08-18T07:31:26.341Z,76.20
2017-08-18T07:33:53.055Z,76.20
2017-08-18T07:36:19.728Z,76.20
2017-08-18T07:38:46.449Z,76.20
2017-08-18T07:41:13.145Z,76.20
2017-08-18T07:43:41.013Z,76.20
2017-08-18T07:46:07.755Z,76.20
2017-08-18T07:48:34.440Z,76.20
2017-08-18T07:51:01.171Z,76.20
2017-08-18T07:53:27.873Z,76.20
2017-08-18T07:55:54.609Z,76.20
2017-08-18T07:58:21.342Z,76.20
2017-08-18T08:00:48.098Z,76.20
2017-08-18T08:03:14.817Z,76.20
2017-08-18T08:05:41.521Z,76.20
2017-08-18T08:08:08.244Z,76.20
2017-08-18T08:10:35.320Z,76.20
2017-08-18T08:13:02.445Z,76.20
2017-08-18T08:15:29.125Z,76.20
2017-08-18T08:17:55.854Z,76.20
2017-08-18T08:20:23.352Z,76.20
2017-08-18T08:22:50.073Z,76.20
2017-08-18T08:25:16.783Z,76.20
2017-08-18T08:27:43.904Z,76.20
2017-08-18T08:30:11.033Z,76.30
2017-08-18T08:35:06.907Z,76.30
2017-08-18T08:37:35.185Z,76.30
2017-08-18T08:42:30.279Z,76.30
2017-08-18T08:44:56.993Z,76.30
2017-08-18T08:47:23.677Z,76.30
2017-08-18T08:49:50.421Z,76.30
2017-08-18T08:52:17.184Z,76.30
2017-08-18T08:54:43.904Z,76.30
2017-08-18T08:57:10.630Z,76.30
2017-08-18T08:59:38.094Z,76.30
2017-08-18T09:02:05.951Z,76.30
2017-08-18T09:04:32.648Z,76.30
2017-08-18T09:07:00.116Z,76.30
2017-08-18T09:09:27.198Z,76.30
2017-08-18T09:11:55.076Z,76.30
2017-08-18T09:14:21.781Z,76.30
2017-08-18T09:16:48.509Z,76.20
2017-08-18T09:19:15.188Z,76.20
2017-08-18T09:21:41.941Z,76.20
2017-08-18T09:24:09.386Z,76.20
2017-08-18T09:26:36.080Z,76.20
2017-08-18T09:31:31.176Z,76.20
2017-08-18T09:33:57.928Z,76.20
2017-08-18T09:36:25.016Z,76.20
2017-08-18T09:38:51.741Z,76.20
2017-08-18T09:41:26.841Z,76.20
2017-08-18T09:43:54.231Z,76.20
2017-08-18T09:46:21.329Z,76.20
2017-08-18T09:48:48.064Z,76.20
2017-08-18T09:51:14.753Z,76.10
2017-08-18T09:53:41.487Z,76.20
2017-08-18T09:56:08.164Z,76.10
2017-08-18T09:58:35.597Z,76.10
2017-08-18T10:01:02.380Z,76.20
2017-08-18T10:03:29.445Z,76.20
2017-08-18T10:05:56.166Z,76.10
2017-08-18T10:08:22.862Z,76.10
2017-08-18T10:10:49.628Z,76.20
2017-08-18T10:13:17.305Z,76.10
2017-08-18T10:15:44.017Z,76.10
2017-08-18T10:18:12.121Z,76.20
2017-08-18T10:20:39.238Z,76.10
2017-08-18T10:23:05.920Z,76.20
2017-08-18T10:25:33.000Z,76.10
2017-08-18T10:27:59.717Z,76.10
2017-08-18T10:30:26.804Z,76.20
2017-08-18T10:32:53.564Z,76.20
2017-08-18T10:35:21.078Z,76.20
2017-08-18T10:37:47.796Z,76.10
2017-08-18T10:40:14.888Z,76.10
2017-08-18T10:42:41.988Z,76.10
2017-08-18T10:47:48.574Z,76.10
2017-08-18T10:50:16.070Z,76.10
2017-08-18T10:52:42.765Z,76.10
2017-08-18T10:55:09.500Z,76.10
2017-08-18T10:57:36.181Z,76.10
2017-08-18T11:00:04.068Z,76.10
2017-08-18T11:02:30.753Z,76.10
2017-08-18T11:04:58.261Z,76.10
2017-08-18T11:07:24.948Z,76.10
2017-08-18T11:09:51.628Z,76.10
2017-08-18T11:12:18.745Z,76.10
2017-08-18T11:14:46.201Z,76.10
2017-08-18T11:17:12.912Z,76.10
2017-08-18T11:19:40.388Z,76.10
2017-08-18T11:22:07.115Z,76.10
2017-08-18T11:24:33.789Z,76.10
2017-08-18T11:27:00.584Z,76.10
2017-08-18T11:29:27.273Z,76.10
2017-08-18T11:31:54.395Z,76.20
2017-08-18T11:34:21.780Z,76.20
2017-08-18T11:36:48.490Z,76.20
2017-08-18T11:39:16.498Z,76.20
2017-08-18T11:41:43.596Z,76.20
2017-08-18T11:44:10.313Z,76.20
2017-08-18T11:46:37.060Z,76.20
2017-08-18T11:49:03.785Z,76.20
2017-08-18T11:51:31.648Z,76.30
2017-08-18T11:53:58.370Z,76.20
2017-08-18T11:56:25.636Z,76.20
2017-08-18T11:58:53.244Z,76.30
2017-08-18T12:01:19.953Z,76.30
2017-08-18T12:03:46.657Z,76.20
2017-08-18T12:06:13.392Z,76.20
2017-08-18T12:08:40.992Z,76.20
2017-08-18T12:11:08.140Z,76.20
2017-08-18T12:13:34.818Z,76.20
2017-08-18T12:16:01.933Z,76.30
2017-08-18T12:18:28.697Z,76.30
2017-08-18T12:20:55.409Z,76.20
2017-08-18T12:23:23.257Z,76.20
2017-08-18T12:25:50.037Z,76.20
2017-08-18T12:28:16.768Z,76.30
2017-08-18T12:30:43.460Z,76.30
2017-08-18T12:33:10.176Z,76.20
2017-08-18T12:35:40.845Z,76.10
2017-08-18T12:38:07.564Z,76.30
2017-08-18T12:40:35.426Z,76.30
2017-08-18T12:43:02.149Z,76.30
2017-08-18T12:45:29.444Z,76.20
2017-08-18T12:47:56.192Z,76.30
2017-08-18T12:50:23.837Z,76.30
2017-08-18T12:52:50.564Z,76.30
2017-08-18T12:55:17.284Z,76.30
2017-08-18T12:57:43.989Z,76.30
2017-08-18T13:00:10.753Z,76.30
2017-08-18T13:02:37.517Z,76.30
2017-08-18T13:07:53.276Z,76.20
2017-08-18T13:10:21.154Z,76.30
2017-08-18T13:12:48.381Z,76.30
2017-08-18T13:15:15.882Z,76.30
2017-08-18T13:17:42.564Z,76.30
2017-08-18T13:20:09.301Z,76.30
2017-08-18T13:22:36.024Z,76.30
2017-08-18T13:25:02.725Z,76.30
2017-08-18T13:27:30.953Z,76.30
2017-08-18T13:29:58.040Z,76.30
2017-08-18T13:32:26.269Z,76.30
2017-08-18T13:34:53.382Z,76.30
2017-08-18T13:39:48.421Z,76.30
2017-08-18T13:42:15.115Z,76.30
2017-08-18T13:44:41.822Z,76.30
2017-08-18T13:47:08.904Z,76.30
2017-08-18T13:49:35.621Z,76.30
2017-08-18T13:52:02.297Z,76.30
2017-08-18T13:54:29.024Z,76.20
2017-08-18T13:56:55.744Z,76.30
2017-08-18T13:59:23.256Z,76.30
2017-08-18T14:01:49.932Z,76.40
2017-08-18T14:06:45.471Z,76.30
2017-08-18T14:09:12.925Z,76.30
2017-08-18T14:11:39.696Z,76.30
2017-08-18T14:14:07.025Z,76.20
2017-08-18T14:16:33.800Z,76.30
2017-08-18T14:19:00.480Z,76.30
2017-08-18T14:21:27.164Z,76.30
2017-08-18T14:23:53.888Z,76.30
2017-08-18T14:26:27.505Z,76.30
2017-08-18T14:28:54.258Z,76.30
2017-08-18T14:31:21.636Z,76.30
2017-08-18T14:33:48.788Z,76.40
2017-08-18T14:36:15.485Z,76.20
2017-08-18T14:38:43.341Z,76.40
2017-08-18T14:41:10.024Z,76.30
2017-08-18T14:43:37.829Z,76.30
2017-08-18T14:46:04.540Z,76.40
2017-08-18T14:48:32.022Z,76.30
2017-08-18T14:53:38.209Z,76.40
2017-08-18T14:56:04.912Z,76.30
2017-08-18T14:58:31.605Z,76.40
2017-08-18T15:00:58.800Z,76.40
2017-08-18T15:03:25.505Z,76.30
2017-08-18T15:05:52.592Z,76.30
2017-08-18T15:08:19.318Z,76.30
2017-08-18T15:10:46.777Z,76.40
2017-08-18T15:13:13.493Z,76.40
2017-08-18T15:15:40.174Z,76.40
2017-08-18T15:18:06.943Z,76.40
2017-08-18T15:20:33.631Z,76.30
2017-08-18T15:23:00.360Z,76.40
2017-08-18T15:25:28.351Z,76.40
2017-08-18T15:27:56.239Z,76.40
2017-08-18T15:30:22.946Z,76.50
2017-08-18T15:32:50.404Z,76.60
2017-08-18T15:40:31.369Z,76.70
2017-08-18T15:42:58.080Z,76.70
2017-08-18T15:45:24.822Z,76.70
2017-08-18T15:47:51.556Z,76.70
2017-08-18T15:50:18.644Z,76.70
2017-08-18T15:52:45.355Z,76.70
2017-08-18T15:55:12.041Z,76.70
2017-08-18T15:57:41.355Z,76.70
2017-08-18T16:00:08.451Z,76.70
2017-08-18T16:02:35.166Z,76.70
2017-08-18T16:05:03.005Z,76.70
2017-08-18T16:07:29.733Z,76.70
2017-08-18T16:09:56.840Z,76.70
2017-08-18T16:12:23.932Z,76.70
2017-08-18T16:14:50.657Z,76.70
2017-08-18T16:17:17.797Z,76.70
2017-08-18T16:19:45.119Z,76.70
2017-08-18T16:22:11.805Z,76.80
2017-08-18T16:24:38.753Z,76.70
2017-08-18T16:27:06.349Z,76.80
2017-08-18T16:29:33.081Z,76.70
2017-08-18T16:32:00.197Z,76.70
2017-08-18T16:34:26.888Z,76.80
2017-08-18T16:36:54.165Z,76.90
2017-08-18T16:39:20.852Z,76.80
2017-08-18T16:41:47.568Z,76.80
2017-08-18T16:44:15.425Z,76.70
2017-08-18T16:46:42.185Z,76.80
2017-08-18T16:49:10.251Z,76.80
2017-08-18T16:51:36.929Z,76.80
2017-08-18T16:54:03.650Z,76.80
2017-08-18T16:56:30.352Z,76.80
2017-08-18T16:58:57.706Z,76.80
2017-08-18T17:01:25.173Z,76.80
2017-08-18T17:03:51.885Z,76.80
2017-08-18T17:06:18.576Z,76.80
2017-08-18T17:08:45.316Z,76.80
2017-08-18T17:11:12.047Z,76.80
2017-08-18T17:13:38.733Z,76.80
2017-08-18T17:16:05.457Z,76.70
2017-08-18T17:18:32.184Z,76.70
2017-08-18T17:20:59.664Z,76.70
2017-08-18T17:23:26.400Z,76.70
2017-08-18T17:25:53.119Z,76.70
2017-08-18T17:28:19.816Z,76.70
2017-08-18T17:30:46.957Z,76.70
2017-08-18T17:33:14.049Z,76.70
2017-08-18T17:35:40.781Z,76.70
2017-08-18T17:38:07.465Z,76.80
2017-08-18T17:40:34.189Z,76.70
2017-08-18T17:43:00.880Z,76.70
2017-08-18T17:45:27.560Z,76.80
2017-08-18T17:47:54.300Z,76.70
2017-08-18T17:50:21.009Z,76.80
2017-08-18T17:52:47.716Z,76.80
2017-08-18T17:55:14.433Z,76.80
2017-08-18T17:57:41.156Z,76.80
2017-08-18T18:00:07.837Z,76.80
2017-08-18T18:02:34.541Z,76.70
2017-08-18T18:05:01.273Z,76.70
2017-08-18T18:07:29.048Z,76.80
2017-08-18T18:09:55.792Z,76.70
2017-08-18T18:12:22.491Z,76.80
2017-08-18T18:14:49.205Z,76.70
2017-08-18T18:17:15.913Z,76.80
2017-08-18T18:19:42.628Z,76.70
2017-08-18T18:22:09.316Z,76.80
2017-08-18T18:24:36.040Z,76.80
2017-08-18T18:27:03.385Z,76.70
2017-08-18T18:29:30.136Z,76.70
2017-08-18T18:31:56.840Z,76.70
2017-08-18T18:34:24.305Z,76.70
2017-08-18T18:36:51.048Z,76.60
2017-08-18T18:39:17.748Z,76.70
2017-08-18T18:41:45.253Z,76.70
2017-08-18T18:44:11.956Z,76.70
2017-08-18T18:46:38.660Z,76.60
2017-08-18T18:49:05.826Z,76.60
2017-08-18T18:51:34.665Z,76.60
2017-08-18T18:54:01.373Z,76.60
2017-08-18T18:56:28.182Z,76.60
2017-08-18T18:58:54.862Z,76.60
2017-08-18T19:01:21.553Z,76.60
2017-08-18T19:03:48.275Z,76.60
2017-08-18T19:06:14.960Z,76.40
2017-08-18T19:08:41.728Z,76.50
2017-08-18T19:11:09.552Z,76.60
2017-08-18T19:13:36.269Z,76.50
2017-08-18T19:16:04.116Z,76.50
2017-08-18T19:18:30.847Z,76.50
2017-08-18T19:20:57.552Z,76.50
2017-08-18T19:23:24.298Z,76.50
2017-08-18T19:25:52.087Z,76.50
2017-08-18T19:28:18.847Z,76.50
2017-08-18T19:30:45.992Z,76.50
2017-08-18T19:33:14.232Z,76.50
2017-08-18T19:35:40.955Z,76.40
2017-08-18T19:38:07.663Z,76.40
2017-08-18T19:40:34.406Z,76.50
2017-08-18T19:43:01.564Z,76.50
2017-08-18T19:45:28.299Z,76.50
2017-08-18T19:47:55.012Z,76.50
2017-08-18T19:50:21.772Z,76.50
2017-08-18T19:52:49.225Z,76.50
2017-08-18T19:55:16.322Z,76.50
2017-08-18T19:57:43.055Z,76.50
2017-08-18T20:00:10.398Z,76.50
2017-08-18T20:02:37.127Z,76.50
2017-08-18T20:07:53.160Z,76.40
2017-08-18T20:10:19.866Z,76.40
2017-08-18T20:12:47.039Z,76.40
2017-08-18T20:15:13.736Z,76.50
2017-08-18T20:17:41.606Z,76.50
2017-08-18T20:20:08.309Z,76.10
2017-08-18T20:22:35.039Z,76.00
2017-08-18T20:25:01.810Z,76.30
2017-08-18T20:27:28.629Z,76.30
2017-08-18T20:29:55.358Z,76.30
2017-08-18T20:32:22.107Z,76.30
2017-08-18T20:37:39.522Z,76.30
2017-08-18T20:40:06.667Z,76.40
2017-08-18T20:42:33.759Z,76.40
2017-08-18T20:45:00.898Z,76.40
2017-08-18T20:47:27.582Z,76.40
2017-08-18T20:49:54.286Z,76.40
2017-08-18T20:52:21.019Z,76.50
2017-08-18T20:54:47.734Z,76.50
2017-08-18T20:57:15.336Z,76.60
2017-08-18T20:59:42.072Z,76.60
2017-08-18T21:02:10.342Z,76.60
2017-08-18T21:07:26.163Z,76.40
2017-08-18T21:09:52.878Z,76.50
2017-08-18T21:12:20.489Z,76.50
2017-08-18T21:14:47.868Z,76.50
2017-08-18T21:17:14.562Z,76.50
2017-08-18T21:19:41.278Z,76.50
2017-08-18T21:22:07.974Z,76.50
2017-08-18T21:24:35.150Z,76.50
2017-08-18T21:27:01.841Z,76.50
2017-08-18T21:29:28.578Z,76.40
2017-08-18T21:31:55.342Z,76.40
2017-08-18T21:34:22.061Z,76.40
2017-08-18T21:36:48.818Z,76.30
2017-08-18T21:39:15.560Z,76.30
2017-08-18T21:41:42.319Z,76.30
2017-08-18T21:44:09.811Z,76.30
2017-08-18T21:46:36.543Z,76.30
2017-08-18T21:49:03.246Z,76.30
2017-08-18T21:51:30.699Z,76.20
2017-08-18T21:53:57.439Z,76.20
2017-08-18T21:56:24.187Z,76.20
2017-08-18T21:58:50.886Z,76.20
2017-08-18T22:01:17.675Z,76.20
2017-08-18T22:03:44.397Z,76.10
2017-08-18T22:06:11.972Z,76.00
2017-08-18T22:08:38.739Z,76.00
2017-08-18T22:11:05.478Z,76.00
2017-08-18T22:13:32.207Z,76.00
2017-08-18T22:15:58.926Z,76.00
2017-08-18T22:18:25.654Z,76.10
2017-08-18T22:20:52.355Z,76.00
2017-08-18T22:23:19.674Z,76.00
2017-08-18T22:25:46.403Z,76.00
2017-08-18T22:28:13.098Z,75.90
2017-08-18T22:30:39.822Z,76.00
2017-08-18T22:33:06.545Z,75.90
2017-08-18T22:35:33.280Z,75.90
2017-08-18T22:37:59.990Z,75.90
2017-08-18T22:40:26.731Z,75.80
2017-08-18T22:42:53.410Z,75.80
2017-08-18T22:45:20.098Z,75.80
2017-08-18T22:47:46.818Z,75.80
2017-08-18T22:50:14.257Z,75.80
2017-08-18T22:52:40.990Z,75.80
2017-08-18T22:55:07.751Z,75.80
2017-08-18T22:57:34.466Z,75.70
2017-08-18T23:00:01.202Z,75.70
2017-08-18T23:02:27.955Z,75.70
2017-08-18T23:04:54.654Z,75.70
2017-08-18T23:07:21.354Z,75.70
2017-08-18T23:09:48.090Z,75.60
2017-08-18T23:12:14.842Z,75.60
2017-08-18T23:14:41.602Z,75.70
2017-08-18T23:17:08.305Z,75.60
2017-08-18T23:19:35.031Z,75.60
2017-08-18T23:22:02.308Z,75.60
2017-08-18T23:24:29.058Z,75.50
2017-08-18T23:26:55.786Z,75.60
2017-08-18T23:29:22.495Z,75.50
2017-08-18T23:31:49.246Z,75.50
2017-08-18T23:34:15.938Z,75.50
2017-08-18T23:36:42.683Z,75.40
2017-08-18T23:39:09.394Z,75.40
2017-08-18T23:41:36.128Z,75.40
2017-08-18T23:44:02.852Z,75.40
2017-08-18T23:46:29.622Z,75.40
2017-08-18T23:48:56.330Z,75.40
2017-08-18T23:51:23.026Z,75.30
2017-08-18T23:53:49.750Z,75.30
2017-08-18T23:56:16.463Z,75.30
2017-08-18T23:58:43.221Z,75.30
